Aerodrome Latest Weathers

# Airport/Station Observation Time (Local Time) Wind Visibility (km) Weather Temp. (°C) Dewdrop (°C) Air Pressure (hPa)
Direction (from) Speed (km/h)
1 Maimun Saleh - Sabang 2022-09-25 04:00:00 WIB Barat 9.3 5.0 Berawan 26 21 1008
2 Sultan Iskandar Muda - Banda Aceh 2022-09-25 04:00:00 WIB Tenggara 7.4 >=10 Berawan 24 22 1007
3 Cut Nyak Dien Nagan Raya - Meulaboh, NAD 2022-09-25 04:00:00 WIB Timur Laut 3.7 6.0 Berawan 23 22 1007
4 Malikus Saleh - Lhokseumawe 2022-09-25 04:00:00 WIB Tenggara 7.4 6.0 Hujan ringan 25 24 1007
5 Binaka - Gunung Sitoli 2022-09-25 04:00:00 WIB Selatan 5.6 6.0 Berawan 24 23 1008
6 Kualanamu International Airport - Deli Serdang 2022-09-25 04:00:00 WIB Selatan 5.6 5.0 Udara kabur 24 23 1008
7 Dr. Ferdinand Lumban Tobing - Pinangsori (Sibolga) 2022-09-25 04:00:00 WIB Tenggara 5.6 6.0 Berawan 24 22 1008
8 Silangit - Tapanuli Utara 2022-09-25 04:00:00 WIB Barat 9.3 >=10 Hujan ringan 15 15 1016
9 Aek Godang - Padang Sidempuan 2022-09-25 04:00:00 WIB Barat 5.6 8.0 Berawan 23 21 1009
10 Minangkabau International Airport - Padang 2022-09-25 04:00:00 WIB Tenggara 3.7 >=10 Berawan 24 24 1009
11 Sultan Syarif Kasim II - Pekanbaru 2022-09-25 04:00:00 WIB Timur Laut 9.3 6.0 Hujan ringan 23 23 1007
12 Depati Parbo - Kerinci 2022-09-25 03:00:00 WIB Utara 11.1 5.0 Berawan 20 18 1014
13 Fatmawati Sukarno - Bengkulu 2022-09-25 04:00:00 WIB Timur Laut 3.7 8.0 Cerah - berawan 23 23 1008
14 Sultan Thaha - Jambi 2022-09-25 04:00:00 WIB Tenang 3.0 Udara kabur 23 23 1009
15 Hang Nadim - Batam 2022-09-25 04:00:00 WIB Selatan 5.6 >=10 Cerah - berawan 26 25 1010
16 Raja Haji Fisabilillah - Tanjung Pinang 2022-09-25 04:00:00 WIB Selatan 5.6 >=10 Berawan 27 24 1009
17 Sultan Mahmud Badaruddin II - Palembang 2022-09-25 04:00:00 WIB Selatan 5.6 >=10 Berawan 25 23 1008
18 Depati Amir - Pangkal Pinang 2022-09-25 04:00:00 WIB Selatan 5.6 >=10 Berawan 25 24 1008
19 Budiarto - Curug 2022-09-25 04:00:00 WIB Variabel 3.7 2.0 Halimun 23 23 1009
20 Soekarno Hatta - Jakarta 2022-09-25 04:00:00 WIB Selatan 11.1 5.0 Udara kabur 25 24 1009
21 H.A.S. Hanandjoeddin - Tanjung Pandan 2022-09-25 04:00:00 WIB Tenang 7.0 Cerah - berawan 24 23 1009
22 Kertajati 2022-09-25 04:00:00 WIB Selatan 13.0 >=10 Cerah - berawan 26 22 1009
23 Ranai - Natuna 2022-09-25 04:00:00 WIB Barat Daya 5.6 >=10 Cerah - berawan 26 26 1007
24 Cakrabhuwana / Penggung - Cirebon 2022-09-25 04:00:00 WIB Timur Laut 3.7 Cerah 25 23 1009
25 Tunggul Wulung - Cilacap 2022-09-25 04:00:00 WIB Timur 9.3 Cerah 25 25 1010
26 Paloh - Sambas 2022-09-25 04:00:00 WIB Tenang 8.0 Cerah - berawan 24 23 1009
27 Supadio - Pontianak 2022-09-25 04:00:00 WIB Timur 3.7 >=10 Cerah - berawan 25 25 1008
28 Rahadi Oesman - Ketapang 2022-09-25 04:00:00 WIB Timur Laut 1.9 Cerah 24 24 1009
29 Yogyakarta International Airport - Kulonprogo 2022-09-25 04:00:00 WIB Tenggara 16.7 6.0 Cerah - berawan 26 23 1010
30 Ahmad Yani - Semarang 2022-09-25 04:00:00 WIB Timur 1.9 6.0 Cerah - berawan 24 22 1009
31 Tebelian - Sintang 2022-09-25 04:00:00 WIB Tenang 3.0 Hujan ringan 23 23 1009
32 Iskandar - Pangkalan Bun 2022-09-25 04:00:00 WIB Tenang 6.0 Berawan 24 24 1009
33 Juanda - Surabaya 2022-09-25 04:00:00 WIB Barat Daya 5.6 8.0 Cerah - berawan 25 23 1009
34 Haji Asan - Sampit 2022-09-25 04:00:00 WIB Tenang 7.0 Hujan tiba-tiba di sekitarnya 24 23 1009
35 Noto Hadinegoro - Jember 2022-09-25 04:00:00 WIB Variabel 3.7 Cerah 22 22 1012
36 Tjilik Riwut - Palangkaraya 2022-09-25 04:00:00 WIB Timur 3.7 7.0 Berawan 24 23 1009
37 Banyuwangi 2022-09-25 04:00:00 WIB Barat 7.4 >=10 Cerah - berawan 24 24 1011
38 Beringin - Muara Teweh 2022-09-25 04:00:00 WIB Tenang 4.0 Hujan tiba-tiba di sekitarnya 24 23 1010
39 Sanggu - Buntok 2022-09-25 04:00:00 WIB Utara 1.9 Cerah 23 23 1010
40 Syamsudin Noor - Banjarmasin 2022-09-25 05:00:00 WITA Variabel 1.9 >=10 Berawan 23 23 1009
41 I Gusti Ngurah Rai - Denpasar 2022-09-25 05:00:00 WITA Tenggara 11.1 >=10 Berawan 27 25 1010
42 Gusti Sjamsir Alam - Kota Baru 2022-09-25 05:00:00 WITA Timur 3.7 8.0 Berawan 23 22 1009
43 Bandara Internasional Lombok - Praya 2022-09-25 05:00:00 WITA Tenang 7.0 Berawan 24 23 1011
44 Sultan Aji Muhammad Sulaiman - Sepinggan 2022-09-25 05:00:00 WITA Barat 5.6 >=10 Berawan 24 24 1009
45 Aji Pangeran Tumenggung Pranoto - Samarinda 2022-09-25 05:01:00 WITA Barat 3.7 1.4 Halimun 23 23 1009
46 Tanjung Harapan - Tanjung Selor 2022-09-25 05:00:00 WITA Tenang 7.0 Cerah - berawan 24 23 1008
47 Sultan Muhammad Kaharuddin - Sumbawa Besar 2022-09-25 02:30:00 WITA Tenggara 7.4 8.0 Cerah - berawan 27 23 1009
48 Kalimarau - Tanjung Redeb 2022-09-25 05:00:00 WITA Barat 5.6 8.0 Berawan 23 23 1009
49 Juwata - Tarakan 2022-09-25 05:00:00 WITA Barat Laut 3.7 8.0 Cerah - berawan 25 24 1008
50 Nunukan 2022-09-25 05:00:00 WITA Variabel 3.7 Cerah 24 24 1007
51 Sultan Muhammad Salahuddin - Bima 2022-09-25 05:00:00 WITA Selatan 7.4 6.0 Cerah - berawan 25 23 1010
52 Sultan Hasanuddin - Makassar 2022-09-25 05:00:00 WITA Tenggara 5.6 8.0 Cerah - berawan 23 22 1010
53 Komodo - Labuan Bajo 2022-09-25 05:00:00 WITA Variabel 3.7 7.0 Berawan 24 23 1011
54 Mutiara SIS Al-Jufri - Palu 2022-09-25 05:00:00 WITA Utara 3.7 7.0 Cerah - berawan 22 22 1009
55 Umbu Mehang Kunda - Waingapu 2022-09-25 05:00:00 WITA Barat Daya 11.1 5.0 Berawan 24 22 1010
56 Andi Jemma - Masamba 2022-09-25 05:00:00 WITA Barat Laut 3.7 7.0 Berawan 23 22 1010
57 Frans Sales Lega - Ruteng 2022-09-25 05:00:00 WITA Tenang Cerah 17 15 1017
58 Kasiguncu - Poso 2022-09-25 05:00:00 WITA Tenang 8.0 Berawan 24 23 1010
59 Sultan Bantilan - Toli Toli 2022-09-25 05:00:00 WITA Timur 3.7 8.0 Berawan 24 22 1007
60 Tardamu - Sabu 2022-09-25 05:00:00 WITA Tenang 6.0 Cerah - berawan 24 23 1010
61 Fransiskus Xaverius Seda - Maumere 2022-09-25 05:00:00 WITA Barat Daya 3.7 8.0 Cerah - berawan 24 24 1011
62 Beto Ambari - Bau Bau 2022-09-25 04:00:00 WITA Barat Daya 3.7 7.0 Cerah - berawan 23 23 1012
63 Djalaluddin - Gorontalo 2022-09-25 05:00:00 WITA Selatan 5.6 9.0 Berawan 23 23 1007
64 Gewayantana - Larantuka 2022-09-25 05:00:00 WITA Tenang 8.0 Cerah - berawan 25 23 1009
65 El Tari - Kupang 2022-09-25 05:00:00 WITA Variabel 3.7 >=10 Cerah - berawan 23 22 1010
66 Mali - Alor 2022-09-25 05:00:00 WITA Tenang 9.0 Cerah - berawan 24 22 1010
67 Sam Ratulangi - Manado 2022-09-25 05:00:00 WITA Variabel 3.7 >=10 Cerah - berawan 22 22 1008
68 Naha - Tahuna 2022-09-25 05:00:00 WITA Barat Daya 9.3 8.0 Berawan 25 24 1007
69 Emalamo - Sanana 2022-09-25 06:00:00 WIT Barat 5.6 >=10 Cerah - berawan 25 24 1008
70 Namniwel - Namlea 2022-09-25 06:00:00 WIT Barat Daya 9.3 >=10 Cerah - berawan 23 21 1007
71 Sultan Babullah - Ternate 2022-09-25 06:00:00 WIT Barat Daya 5.6 >=10 Berawan 25 23 1008
72 Oesman Sadik - Labuha 2022-09-25 06:00:00 WIT Tenang 9.0 Cerah - berawan 23 23 1007
73 Gamar Malamo - Galela 2022-09-25 06:00:00 WIT Tenang >=10 Berawan 23 23 1007
74 Pattimura - Ambon 2022-09-25 06:00:00 WIT Selatan 16.7 >=10 Berawan 27 23 1008
75 Amahai 2022-09-25 06:00:00 WIT Timur 3.7 8.0 Berawan 25 23 1008
76 Bandaneira - Banda 2022-09-25 05:00:00 WIT Barat Daya 7.4 8.0 Berawan 26 23 1008
77 Domine Eduard Osok - Sorong 2022-09-25 06:00:00 WIT Variabel 1.9 7.0 Berawan 24 23 1007
78 Mathilda Batlayeri - Saumlaki 2022-09-25 06:00:00 WIT Tenang >=10 Cerah - berawan 26 22 1009
79 Karel Sadsuitubun - Tual 2022-09-25 06:00:00 WIT Tenang 8.0 Cerah - berawan 22 21 1008
80 Utarom - Kaimana 2022-09-25 06:00:00 WIT Tenang Cerah 25 25 1007
81 Rendani - Manokwari 2022-09-25 06:00:00 WIT Tenang 5.0 Hujan ringan 25 24 1007
82 Douw Aturure - Nabire 2022-09-25 05:30:00 WIT Selatan 7.4 4.0 Hujan ringan 24 23 1008
83 Frans Kaisiepo - Biak 2022-09-25 06:00:00 WIT Timur Laut 5.6 9.0 Berawan 26 24 1008
84 Enarotali 2022-09-25 06:00:00 WIT Tenang 6.0 Berawan 16 14 1008
85 Mozes Kilangin - Timika 2022-09-25 06:00:00 WIT Tenang 8.0 Berawan 24 24 1010
86 Wamena 2022-09-25 06:00:00 WIT Timur Laut 5.6 3.0 Halimun 16 15 1020
87 Mopah - Merauke 2022-09-25 06:00:00 WIT Timur Laut 5.6 8.0 Cerah - berawan 25 24 1008
88 Sentani - Jayapura 2022-09-25 06:00:00 WIT Tenang >=10 Berawan 25 22 1009

Satellite Images

Wave Height Forecast

Wind Forecast

Forest Fires